createdAt,value
2018-10-19T00:00:11.875Z,923.57
2018-10-19T00:01:43.444Z,923.60
2018-10-19T00:03:15.122Z,923.70
2018-10-19T00:04:46.591Z,923.67
2018-10-19T00:06:18.172Z,923.64
2018-10-19T00:07:49.738Z,923.62
2018-10-19T00:09:21.312Z,923.60
2018-10-19T00:10:53.131Z,923.58
2018-10-19T00:12:24.459Z,923.58
2018-10-19T00:13:56.132Z,923.61
2018-10-19T00:15:27.606Z,923.70
2018-10-19T00:16:59.400Z,923.69
2018-10-19T00:18:30.752Z,923.73
2018-10-19T00:20:02.326Z,923.72
2018-10-19T00:21:33.900Z,923.69
2018-10-19T00:23:05.491Z,923.54
2018-10-19T00:24:37.047Z,923.58
2018-10-19T00:26:08.620Z,923.50
2018-10-19T00:27:40.194Z,923.43
2018-10-19T00:29:11.818Z,923.29
2018-10-19T00:30:43.342Z,923.18
2018-10-19T00:32:15.015Z,923.11
2018-10-19T00:35:18.062Z,923.01
2018-10-19T00:36:49.659Z,923.05
2018-10-19T00:38:21.209Z,923.02
2018-10-19T00:39:52.782Z,923.02
2018-10-19T00:41:24.356Z,923.00
2018-10-19T00:42:55.930Z,922.96
2018-10-19T00:44:27.504Z,922.94
2018-10-19T00:45:59.079Z,922.96
2018-10-19T00:47:30.654Z,922.89
2018-10-19T00:49:02.224Z,922.74
2018-10-19T00:50:33.897Z,922.66
2018-10-19T00:52:05.369Z,922.59
2018-10-19T00:53:36.942Z,922.53
2018-10-19T00:55:08.515Z,922.54
2018-10-19T00:56:40.089Z,922.53
2018-10-19T00:58:11.663Z,922.53
2018-10-19T00:59:43.235Z,922.51
2018-10-19T01:01:14.809Z,922.59
2018-10-19T01:02:46.382Z,922.59
2018-10-19T01:04:17.957Z,922.60
2018-10-19T01:05:49.530Z,922.60
2018-10-19T01:07:21.103Z,922.60
2018-10-19T01:08:52.826Z,922.62
2018-10-19T01:10:24.252Z,922.58
2018-10-19T01:11:55.826Z,922.60
2018-10-19T01:13:27.400Z,922.65
2018-10-19T01:14:59.023Z,922.65
2018-10-19T01:16:30.547Z,922.68
2018-10-19T01:18:02.122Z,922.66
2018-10-19T01:19:33.700Z,922.67
2018-10-19T01:21:05.276Z,922.71
2018-10-19T01:22:36.845Z,922.70
2018-10-19T01:24:08.418Z,922.68
2018-10-19T01:25:40.026Z,922.61
2018-10-19T01:27:11.720Z,922.53
2018-10-19T01:28:43.140Z,922.57
2018-10-19T01:30:14.711Z,922.56
2018-10-19T01:31:46.286Z,922.57
2018-10-19T01:33:17.861Z,922.52
2018-10-19T01:34:49.434Z,922.41
2018-10-19T01:36:21.007Z,922.38
2018-10-19T01:37:52.583Z,922.35
2018-10-19T01:39:24.155Z,922.40
2018-10-19T01:40:55.749Z,922.37
2018-10-19T01:42:27.305Z,922.30
2018-10-19T01:43:58.881Z,922.22
2018-10-19T01:45:30.551Z,922.20
2018-10-19T01:47:02.047Z,922.27
2018-10-19T01:48:33.600Z,922.30
2018-10-19T01:50:05.172Z,922.43
2018-10-19T01:51:36.747Z,922.48
2018-10-19T01:53:08.382Z,922.49
2018-10-19T01:54:39.911Z,922.58
2018-10-19T01:56:11.469Z,922.58
2018-10-19T01:57:43.043Z,922.62
2018-10-19T01:59:14.662Z,922.65
2018-10-19T02:00:46.193Z,922.65
2018-10-19T02:02:17.763Z,922.59
2018-10-19T02:03:49.444Z,922.59
2018-10-19T02:05:20.911Z,922.59
2018-10-19T02:06:52.788Z,922.61
2018-10-19T02:08:24.057Z,922.66
2018-10-19T02:09:55.631Z,922.72
2018-10-19T02:11:27.205Z,922.85
2018-10-19T02:12:58.778Z,922.82
2018-10-19T02:14:30.352Z,922.76
2018-10-19T02:16:01.927Z,922.75
2018-10-19T02:17:33.501Z,922.79
2018-10-19T02:19:05.074Z,922.81
2018-10-19T02:20:36.659Z,922.82
2018-10-19T02:22:08.323Z,922.79
2018-10-19T02:23:39.796Z,922.78
2018-10-19T02:25:11.369Z,922.75
2018-10-19T02:26:42.942Z,922.82
2018-10-19T02:28:14.516Z,922.84
2018-10-19T02:29:46.089Z,922.91
2018-10-19T02:31:17.664Z,922.93
2018-10-19T02:32:49.764Z,923.01
2018-10-19T02:34:20.816Z,923.06
2018-10-19T02:35:52.384Z,923.08
2018-10-19T02:37:23.958Z,923.06
2018-10-19T02:38:55.595Z,923.13
2018-10-19T02:40:27.205Z,923.20
2018-10-19T02:41:58.703Z,923.14
2018-10-19T02:43:30.254Z,923.12
2018-10-19T02:45:01.835Z,923.14
2018-10-19T02:46:33.400Z,923.19
2018-10-19T02:48:04.974Z,923.17
2018-10-19T02:49:36.548Z,923.19
2018-10-19T02:51:08.200Z,923.16
2018-10-19T02:52:39.694Z,923.16
2018-10-19T02:54:11.267Z,923.18
2018-10-19T02:55:42.842Z,923.20
2018-10-19T02:57:14.486Z,923.24
2018-10-19T02:58:46.890Z,923.28
2018-10-19T03:00:17.562Z,923.29
2018-10-19T03:01:49.138Z,923.37
2018-10-19T03:03:20.712Z,923.34
2018-10-19T03:04:52.493Z,923.31
2018-10-19T03:06:23.861Z,923.27
2018-10-19T03:07:55.432Z,923.22
2018-10-19T03:09:27.006Z,923.18
2018-10-19T03:10:58.593Z,923.22
2018-10-19T03:12:30.836Z,923.24
2018-10-19T03:14:01.837Z,923.20
2018-10-19T03:15:33.392Z,923.12
2018-10-19T03:17:05.674Z,923.12
2018-10-19T03:18:36.531Z,923.10
2018-10-19T03:20:08.108Z,923.09
2018-10-19T03:23:12.503Z,923.11
2018-10-19T03:24:43.419Z,923.02
2018-10-19T03:26:14.399Z,922.96
2018-10-19T03:27:46.027Z,923.00
2018-10-19T03:29:17.702Z,923.02
2018-10-19T03:30:49.107Z,923.01
2018-10-19T03:32:20.612Z,923.04
2018-10-19T03:33:52.185Z,923.08
2018-10-19T03:35:23.861Z,923.07
2018-10-19T03:36:55.332Z,923.09
2018-10-19T03:38:26.906Z,923.07
2018-10-19T03:39:58.480Z,923.03
2018-10-19T03:41:30.055Z,922.93
2018-10-19T03:43:01.635Z,922.97
2018-10-19T03:44:33.201Z,922.96
2018-10-19T03:46:04.776Z,922.98
2018-10-19T03:47:36.555Z,922.95
2018-10-19T03:49:07.945Z,923.00
2018-10-19T03:50:39.503Z,923.03
2018-10-19T03:52:11.073Z,923.00
2018-10-19T03:53:42.744Z,923.00
2018-10-19T03:55:14.219Z,923.03
2018-10-19T03:56:45.791Z,923.04
2018-10-19T03:58:17.367Z,923.01
2018-10-19T03:59:48.940Z,922.96
2018-10-19T04:01:20.512Z,922.91
2018-10-19T04:02:52.107Z,922.87
2018-10-19T04:04:23.661Z,922.89
2018-10-19T04:05:55.234Z,922.86
2018-10-19T04:07:26.808Z,922.90
2018-10-19T04:10:29.957Z,922.89
2018-10-19T04:12:01.635Z,922.87
2018-10-19T04:13:33.106Z,922.88
2018-10-19T04:15:04.776Z,922.94
2018-10-19T04:16:36.251Z,922.93
2018-10-19T04:18:07.826Z,922.90
2018-10-19T04:19:39.402Z,922.81
2018-10-19T04:21:11.013Z,922.82
2018-10-19T04:22:42.548Z,922.83
2018-10-19T04:24:14.123Z,922.82
2018-10-19T04:25:45.999Z,922.87
2018-10-19T04:27:17.387Z,922.84
2018-10-19T04:28:48.844Z,922.78
2018-10-19T04:30:20.522Z,922.76
2018-10-19T04:31:51.991Z,922.76
2018-10-19T04:33:23.565Z,922.75
2018-10-19T04:34:55.387Z,922.73
2018-10-19T04:36:26.713Z,922.67
2018-10-19T04:37:58.289Z,922.59
2018-10-19T04:39:29.862Z,922.57
2018-10-19T04:41:01.506Z,922.58
2018-10-19T04:42:33.009Z,922.55
2018-10-19T04:44:04.583Z,922.58
2018-10-19T04:45:36.157Z,922.58
2018-10-19T04:47:07.916Z,922.56
2018-10-19T04:48:39.491Z,922.51
2018-10-19T04:50:10.962Z,922.46
2018-10-19T04:53:14.110Z,922.51
2018-10-19T04:54:45.601Z,922.50
2018-10-19T04:56:17.176Z,922.47
2018-10-19T04:57:48.749Z,922.41
2018-10-19T04:59:20.334Z,922.41
2018-10-19T05:02:23.543Z,922.45
2018-10-19T05:05:26.763Z,922.43
2018-10-19T05:06:58.196Z,922.41
2018-10-19T05:08:29.867Z,922.39
2018-10-19T05:10:01.340Z,922.41
2018-10-19T05:11:32.915Z,922.43
2018-10-19T05:13:04.556Z,922.43
2018-10-19T05:14:36.116Z,922.41
2018-10-19T05:16:07.687Z,922.38
2018-10-19T05:17:39.442Z,922.32
2018-10-19T05:19:10.828Z,922.35
2018-10-19T05:20:42.403Z,922.36
2018-10-19T05:22:14.553Z,922.39
2018-10-19T05:23:45.541Z,922.39
2018-10-19T05:25:17.118Z,922.39
2018-10-19T05:26:48.800Z,922.33
2018-10-19T05:28:20.270Z,922.33
2018-10-19T05:29:52.024Z,922.32
2018-10-19T05:31:23.418Z,922.32
2018-10-19T05:34:26.577Z,922.35
2018-10-19T05:35:58.119Z,922.30
2018-10-19T05:37:29.701Z,922.28
2018-10-19T05:39:01.283Z,922.22
2018-10-19T05:40:32.835Z,922.25
2018-10-19T05:42:04.425Z,922.23
2018-10-19T05:43:36.042Z,922.22
2018-10-19T05:45:07.575Z,922.17
2018-10-19T05:46:39.239Z,922.16
2018-10-19T05:48:10.717Z,922.15
2018-10-19T05:51:13.868Z,922.16
2018-10-19T05:52:45.437Z,922.16
2018-10-19T05:54:17.022Z,922.17
2018-10-19T05:55:48.589Z,922.23
2018-10-19T05:57:20.126Z,922.27
2018-10-19T05:58:51.896Z,922.19
2018-10-19T06:00:23.266Z,922.15
2018-10-19T06:01:54.913Z,922.11
2018-10-19T06:03:26.439Z,922.13
2018-10-19T06:04:58.179Z,922.06
2018-10-19T06:06:29.560Z,922.03
2018-10-19T06:08:01.194Z,922.04
2018-10-19T06:09:32.705Z,922.03
2018-10-19T06:11:04.364Z,922.00
2018-10-19T06:12:36.358Z,921.93
2018-10-19T06:14:07.752Z,921.89
2018-10-19T06:17:10.620Z,921.91
2018-10-19T06:18:42.147Z,921.89
2018-10-19T06:20:13.807Z,921.90
2018-10-19T06:21:45.291Z,921.86
2018-10-19T06:23:17.106Z,921.83
2018-10-19T06:24:48.440Z,921.77
2018-10-19T06:26:20.042Z,921.76
2018-10-19T06:27:51.584Z,921.74
2018-10-19T06:29:23.159Z,921.72
2018-10-19T06:30:54.732Z,921.69
2018-10-19T06:32:26.306Z,921.69
2018-10-19T06:33:57.879Z,921.66
2018-10-19T06:35:29.464Z,921.67
2018-10-19T06:37:01.066Z,921.66
2018-10-19T06:38:32.602Z,921.69
2018-10-19T06:40:04.215Z,921.67
2018-10-19T06:41:35.890Z,921.69
2018-10-19T06:43:07.340Z,921.72
2018-10-19T06:44:38.891Z,921.72
2018-10-19T06:46:10.503Z,921.71
2018-10-19T06:49:13.753Z,921.79
2018-10-19T06:50:45.212Z,921.82
2018-10-19T06:52:16.766Z,921.88
2018-10-19T06:53:48.340Z,921.86
2018-10-19T06:55:19.909Z,921.86
2018-10-19T06:58:23.057Z,921.91
2018-10-19T06:59:54.624Z,921.90
2018-10-19T07:01:26.297Z,921.94
2018-10-19T07:04:29.343Z,921.98
2018-10-19T07:06:00.928Z,921.95
2018-10-19T07:07:32.527Z,921.92
2018-10-19T07:09:04.067Z,921.90
2018-10-19T07:10:35.639Z,921.87
2018-10-19T07:12:07.267Z,921.94
2018-10-19T07:13:38.786Z,921.96
2018-10-19T07:15:10.428Z,921.93
2018-10-19T07:16:41.976Z,921.93
2018-10-19T07:18:13.552Z,921.97
2018-10-19T07:19:45.190Z,921.97
2018-10-19T07:21:16.657Z,921.95
2018-10-19T07:22:48.237Z,921.92
2018-10-19T07:24:19.808Z,921.95
2018-10-19T07:25:51.376Z,921.92
2018-10-19T07:27:22.949Z,921.88
2018-10-19T07:28:54.564Z,921.88
2018-10-19T07:30:26.097Z,921.88
2018-10-19T07:31:57.720Z,921.89
2018-10-19T07:33:29.244Z,921.91
2018-10-19T07:35:00.871Z,921.93
2018-10-19T07:36:32.491Z,921.91
2018-10-19T07:38:04.102Z,921.90
2018-10-19T07:39:35.566Z,921.90
2018-10-19T07:41:07.107Z,921.89
2018-10-19T07:42:38.675Z,921.88
2018-10-19T07:44:10.300Z,921.88
2018-10-19T07:45:42.022Z,921.91
2018-10-19T07:47:13.508Z,921.96
2018-10-19T07:48:44.969Z,922.00
2018-10-19T07:50:16.617Z,922.08
2018-10-19T07:51:48.115Z,922.10
2018-10-19T07:53:19.687Z,922.08
2018-10-19T07:54:51.260Z,922.16
2018-10-19T07:56:22.934Z,922.20
2018-10-19T07:57:54.405Z,922.24
2018-10-19T07:59:25.976Z,922.18
2018-10-19T08:00:57.584Z,922.22
2018-10-19T08:02:29.122Z,922.24
2018-10-19T08:04:00.695Z,922.29
2018-10-19T08:05:32.269Z,922.35
2018-10-19T08:07:03.841Z,922.35
2018-10-19T08:08:35.414Z,922.39
2018-10-19T08:10:06.987Z,922.39
2018-10-19T08:11:38.630Z,922.38
2018-10-19T08:13:10.134Z,922.36
2018-10-19T08:14:41.808Z,922.35
2018-10-19T08:16:13.281Z,922.33
2018-10-19T08:17:44.856Z,922.33
2018-10-19T08:19:16.425Z,922.36
2018-10-19T08:20:47.997Z,922.43
2018-10-19T08:22:19.574Z,922.47
2018-10-19T08:23:51.143Z,922.52
2018-10-19T08:25:22.717Z,922.60
2018-10-19T08:26:54.290Z,922.61
2018-10-19T08:28:25.863Z,922.64
2018-10-19T08:29:57.438Z,922.65
2018-10-19T08:31:29.009Z,922.69
2018-10-19T08:33:00.995Z,922.67
2018-10-19T08:34:32.250Z,922.71
2018-10-19T08:36:03.812Z,922.73
2018-10-19T08:37:35.385Z,922.77
2018-10-19T08:39:06.905Z,922.74
2018-10-19T08:40:38.449Z,922.76
2018-10-19T08:42:10.059Z,922.82
2018-10-19T08:45:13.231Z,922.83
2018-10-19T08:46:44.825Z,922.84
2018-10-19T08:48:16.394Z,922.89
2018-10-19T08:49:47.938Z,922.93
2018-10-19T08:51:19.801Z,922.90
2018-10-19T08:52:51.579Z,922.93
2018-10-19T08:54:22.632Z,922.89
2018-10-19T08:55:54.245Z,922.86
2018-10-19T08:57:26.019Z,922.88
2018-10-19T08:58:57.369Z,922.90
2018-10-19T09:00:29.121Z,922.96
2018-10-19T09:02:00.474Z,923.01
2018-10-19T09:03:32.310Z,923.02
2018-10-19T09:05:03.682Z,923.01
2018-10-19T09:06:35.427Z,923.02
2018-10-19T09:08:06.766Z,923.05
2018-10-19T09:09:38.440Z,923.11
2018-10-19T09:11:09.921Z,923.15
2018-10-19T09:12:42.257Z,923.16
2018-10-19T09:14:14.093Z,923.24
2018-10-19T09:15:45.507Z,923.24
2018-10-19T09:17:16.545Z,923.30
2018-10-19T09:18:47.854Z,923.34
2018-10-19T09:21:51.867Z,923.39
2018-10-19T09:23:23.264Z,923.45
2018-10-19T09:24:55.682Z,923.50
2018-10-19T09:26:26.982Z,923.59
2018-10-19T09:27:58.594Z,923.54
2018-10-19T09:29:30.391Z,923.55
2018-10-19T09:31:01.171Z,923.61
2018-10-19T09:32:32.528Z,923.58
2018-10-19T09:34:04.166Z,923.57
2018-10-19T09:35:36.211Z,923.59
2018-10-19T09:37:07.791Z,923.57
2018-10-19T09:40:10.075Z,923.64
2018-10-19T09:41:41.740Z,923.65
2018-10-19T09:43:13.185Z,923.65
2018-10-19T09:44:44.772Z,923.64
2018-10-19T09:47:47.833Z,923.74
2018-10-19T09:50:52.143Z,923.77
2018-10-19T09:52:22.443Z,923.63
2018-10-19T09:53:53.995Z,923.61
2018-10-19T09:55:26.074Z,923.63
2018-10-19T09:56:57.564Z,923.74
2018-10-19T09:58:29.351Z,923.86
2018-10-19T10:00:00.327Z,923.84
2018-10-19T10:01:32.298Z,923.82
2018-10-19T10:03:03.698Z,923.87
2018-10-19T10:04:35.036Z,923.85
2018-10-19T10:06:07.330Z,923.92
2018-10-19T10:07:38.458Z,923.91
2018-10-19T10:10:42.007Z,923.82
2018-10-19T10:12:13.179Z,923.74
2018-10-19T10:13:44.866Z,923.75
2018-10-19T10:15:16.182Z,923.75
2018-10-19T10:16:47.663Z,923.78
2018-10-19T10:18:20.161Z,923.83
2018-10-19T10:19:51.994Z,923.87
2018-10-19T10:21:22.668Z,924.01
2018-10-19T10:22:54.198Z,924.03
2018-10-19T10:24:25.911Z,924.15
2018-10-19T10:25:58.215Z,924.05
2018-10-19T10:27:29.479Z,924.08
2018-10-19T10:29:00.640Z,924.10
2018-10-19T10:30:32.116Z,924.13
2018-10-19T10:32:03.622Z,924.13
2018-10-19T10:35:06.578Z,924.22
2018-10-19T10:36:38.378Z,924.20
2018-10-19T10:38:10.113Z,924.17
2018-10-19T10:39:41.677Z,924.24
2018-10-19T10:41:13.032Z,924.23
2018-10-19T10:42:44.672Z,924.25
2018-10-19T10:44:16.703Z,924.34
2018-10-19T10:45:47.965Z,924.33
2018-10-19T10:47:19.146Z,924.38
2018-10-19T10:48:50.905Z,924.37
2018-10-19T10:50:22.682Z,924.56
2018-10-19T10:51:54.534Z,924.68
2018-10-19T10:53:26.064Z,924.62
2018-10-19T10:54:57.362Z,924.62
2018-10-19T10:56:29.067Z,924.58
2018-10-19T10:58:03.336Z,924.90
2018-10-19T10:59:34.723Z,924.74
2018-10-19T11:01:06.360Z,924.86
2018-10-19T11:02:38.529Z,924.71
2018-10-19T11:04:09.654Z,924.68
2018-10-19T11:05:41.426Z,924.70
2018-10-19T11:07:11.776Z,924.75
2018-10-19T11:08:42.990Z,924.85
2018-10-19T11:10:15.239Z,924.71
2018-10-19T11:11:48.388Z,924.71
2018-10-19T11:13:18.664Z,924.73
2018-10-19T11:14:49.490Z,924.73
2018-10-19T11:16:20.404Z,924.84
2018-10-19T11:17:52.348Z,924.84
2018-10-19T11:19:24.255Z,924.83
2018-10-19T11:20:55.355Z,924.91
2018-10-19T11:22:25.945Z,924.98
2018-10-19T11:23:59.499Z,924.86
2018-10-19T11:27:04.498Z,925.04
2018-10-19T11:28:33.304Z,924.97
2018-10-19T11:30:05.500Z,925.09
2018-10-19T11:31:36.788Z,925.01
2018-10-19T11:33:08.032Z,924.93
2018-10-19T11:34:40.760Z,925.01
2018-10-19T11:36:11.700Z,924.93
2018-10-19T11:37:42.666Z,925.18
2018-10-19T11:39:14.788Z,925.17
2018-10-19T11:40:46.694Z,925.26
2018-10-19T11:42:16.849Z,925.21
2018-10-19T11:45:20.580Z,925.44
2018-10-19T11:46:52.157Z,925.42
2018-10-19T11:48:23.702Z,925.45
2018-10-19T11:49:55.276Z,925.37
2018-10-19T11:51:27.550Z,925.19
2018-10-19T11:52:58.450Z,925.30
2018-10-19T11:54:29.601Z,925.18
2018-10-19T11:56:01.569Z,925.18
2018-10-19T11:57:33.908Z,925.21
2018-10-19T11:59:04.908Z,925.30
2018-10-19T12:00:36.862Z,925.30
2018-10-19T12:02:08.013Z,925.50
2018-10-19T12:03:39.476Z,925.58
2018-10-19T12:05:10.804Z,925.58
2018-10-19T12:08:15.883Z,925.30
2018-10-19T12:09:46.934Z,925.35
2018-10-19T12:11:17.024Z,925.34
2018-10-19T12:12:48.441Z,925.36
2018-10-19T12:14:20.995Z,925.46
2018-10-19T12:15:51.581Z,925.33
2018-10-19T12:17:24.370Z,925.31
2018-10-19T12:18:55.347Z,925.38
2018-10-19T12:20:27.813Z,925.28
2018-10-19T12:21:58.339Z,925.33
2018-10-19T12:23:30.378Z,925.32
2018-10-19T12:25:01.569Z,925.42
2018-10-19T12:26:32.892Z,925.45
2018-10-19T12:28:04.222Z,925.32
2018-10-19T12:29:35.927Z,925.48
2018-10-19T12:31:07.733Z,925.34
2018-10-19T12:32:40.030Z,925.41
2018-10-19T12:34:11.895Z,925.36
2018-10-19T12:35:43.240Z,925.23
2018-10-19T12:37:14.101Z,925.37
2018-10-19T12:38:46.080Z,925.29
2018-10-19T12:40:16.075Z,925.20
2018-10-19T12:41:48.225Z,925.17
2018-10-19T12:43:20.130Z,925.40
2018-10-19T12:44:51.740Z,925.18
2018-10-19T12:46:22.980Z,925.26
2018-10-19T12:47:54.433Z,925.37
2018-10-19T12:49:26.166Z,925.41
2018-10-19T12:50:59.411Z,925.48
2018-10-19T12:52:30.094Z,925.45
2018-10-19T12:54:01.479Z,925.32
2018-10-19T12:55:32.763Z,925.51
2018-10-19T12:57:04.210Z,925.54
2018-10-19T13:00:06.248Z,925.35
2018-10-19T13:03:09.657Z,925.27
2018-10-19T13:04:40.983Z,925.41
2018-10-19T13:06:12.581Z,925.29
2018-10-19T13:07:44.191Z,925.50
2018-10-19T13:10:47.569Z,925.71
2018-10-19T13:12:18.829Z,925.69
2018-10-19T13:13:50.511Z,925.66
2018-10-19T13:15:22.592Z,925.44
2018-10-19T13:16:54.065Z,925.42
2018-10-19T13:18:25.515Z,925.40
2018-10-19T13:19:57.091Z,925.48
2018-10-19T13:21:28.405Z,925.57
2018-10-19T13:22:59.941Z,925.60
2018-10-19T13:24:32.150Z,925.34
2018-10-19T13:26:03.529Z,925.39
2018-10-19T13:27:35.423Z,925.56
2018-10-19T13:29:06.571Z,925.77
2018-10-19T13:30:38.897Z,925.74
2018-10-19T13:32:10.038Z,925.77
2018-10-19T13:33:40.957Z,925.69
2018-10-19T13:35:13.029Z,925.75
2018-10-19T13:36:45.342Z,925.54
2018-10-19T13:38:17.680Z,925.76
2018-10-19T13:39:48.723Z,925.61
2018-10-19T13:41:20.202Z,925.52
2018-10-19T13:42:51.987Z,925.48
2018-10-19T13:44:22.840Z,925.58
2018-10-19T13:45:54.714Z,925.71
2018-10-19T13:47:25.531Z,925.74
2018-10-19T13:48:57.472Z,926.05
2018-10-19T13:52:00.162Z,926.35
2018-10-19T13:53:32.276Z,926.20
2018-10-19T13:55:03.221Z,926.27
2018-10-19T13:56:34.750Z,926.10
2018-10-19T13:58:06.709Z,925.77
2018-10-19T13:59:38.234Z,925.90
2018-10-19T14:01:10.142Z,926.14
2018-10-19T14:02:42.299Z,926.14
2018-10-19T14:04:14.266Z,926.17
2018-10-19T14:05:47.150Z,926.46
2018-10-19T14:07:17.828Z,926.04
2018-10-19T14:08:47.615Z,925.75
2018-10-19T14:10:18.843Z,925.56
2018-10-19T14:11:50.561Z,926.03
2018-10-19T14:14:53.802Z,925.79
2018-10-19T14:16:25.207Z,926.04
2018-10-19T14:17:56.943Z,925.90
2018-10-19T14:19:28.957Z,925.72
2018-10-19T14:22:32.235Z,925.89
2018-10-19T14:25:34.615Z,925.88
2018-10-19T14:27:06.285Z,925.92
2018-10-19T14:28:37.966Z,926.24
2018-10-19T14:30:09.563Z,926.23
2018-10-19T14:31:41.210Z,926.55
2018-10-19T14:33:12.770Z,926.62
2018-10-19T14:36:16.034Z,926.24
2018-10-19T14:37:47.235Z,926.47
2018-10-19T14:39:18.872Z,926.07
2018-10-19T14:40:50.735Z,925.85
2018-10-19T14:42:22.368Z,925.70
2018-10-19T14:43:53.755Z,925.80
2018-10-19T14:45:25.333Z,925.62
2018-10-19T14:46:57.376Z,925.65
2018-10-19T14:48:28.948Z,925.66
2018-10-19T14:50:00.283Z,925.57
2018-10-19T14:51:32.641Z,925.63
2018-10-19T14:53:03.630Z,925.67
2018-10-19T14:54:35.566Z,925.58
2018-10-19T14:56:06.465Z,925.59
2018-10-19T14:57:37.966Z,925.50
2018-10-19T14:59:09.463Z,925.49
2018-10-19T15:00:41.812Z,925.54
2018-10-19T15:02:12.478Z,925.59
2018-10-19T15:03:44.182Z,925.58
2018-10-19T15:05:15.727Z,925.42
2018-10-19T15:06:47.565Z,925.46
2018-10-19T15:08:18.836Z,925.54
2018-10-19T15:09:50.680Z,925.66
2018-10-19T15:11:22.729Z,925.72
2018-10-19T15:14:25.113Z,925.50
2018-10-19T15:15:56.988Z,925.48
2018-10-19T15:17:28.244Z,925.40
2018-10-19T15:19:00.352Z,925.51
2018-10-19T15:22:03.562Z,925.30
2018-10-19T15:23:34.576Z,925.26
2018-10-19T15:25:06.319Z,925.18
2018-10-19T15:26:37.675Z,925.20
2018-10-19T15:28:09.454Z,925.17
2018-10-19T15:29:41.045Z,925.19
2018-10-19T15:31:12.563Z,925.12
2018-10-19T15:32:44.203Z,925.16
2018-10-19T15:34:15.675Z,925.21
2018-10-19T15:35:47.445Z,925.10
2018-10-19T15:37:18.815Z,925.12
2018-10-19T15:38:51.141Z,925.20
2018-10-19T15:40:22.514Z,925.35
2018-10-19T15:41:53.456Z,925.13
2018-10-19T15:43:25.244Z,925.16
2018-10-19T15:44:56.822Z,925.14
2018-10-19T15:46:29.402Z,925.00
2018-10-19T15:47:59.860Z,925.04
2018-10-19T15:49:31.398Z,924.89
2018-10-19T15:51:03.035Z,924.83
2018-10-19T15:52:35.320Z,924.92
2018-10-19T15:54:06.310Z,924.93
2018-10-19T15:55:37.955Z,924.98
2018-10-19T15:57:09.532Z,924.87
2018-10-19T16:01:44.780Z,925.07
2018-10-19T16:03:15.948Z,924.94
2018-10-19T16:04:47.468Z,925.06
2018-10-19T16:06:19.005Z,924.85
2018-10-19T16:07:50.920Z,924.86
2018-10-19T16:09:22.139Z,925.00
2018-10-19T16:10:54.047Z,924.93
2018-10-19T16:12:25.424Z,924.77
2018-10-19T16:13:56.796Z,924.89
2018-10-19T16:15:28.776Z,924.86
2018-10-19T16:17:00.339Z,924.85
2018-10-19T16:18:31.880Z,924.78
2018-10-19T16:20:03.855Z,924.79
2018-10-19T16:21:35.911Z,924.77
2018-10-19T16:23:06.078Z,924.61
2018-10-19T16:24:38.858Z,924.62
2018-10-19T16:26:09.532Z,924.62
2018-10-19T16:27:40.888Z,924.65
2018-10-19T16:29:12.482Z,924.69
2018-10-19T16:30:44.141Z,924.68
2018-10-19T16:35:19.473Z,924.76
2018-10-19T16:36:51.145Z,924.73
2018-10-19T16:38:21.928Z,924.76
2018-10-19T16:39:54.553Z,924.67
2018-10-19T16:41:25.011Z,924.65
2018-10-19T16:42:56.837Z,924.59
2018-10-19T16:44:28.401Z,924.53
2018-10-19T16:45:59.684Z,924.74
2018-10-19T16:47:31.348Z,924.60
2018-10-19T16:50:34.973Z,924.60
2018-10-19T16:52:06.212Z,924.68
2018-10-19T16:53:37.725Z,924.73
2018-10-19T16:55:09.165Z,924.73
2018-10-19T16:56:40.808Z,924.73
2018-10-19T16:58:12.352Z,924.76
2018-10-19T16:59:45.475Z,924.75
2018-10-19T17:01:15.611Z,924.70
2018-10-19T17:02:47.097Z,924.80
2018-10-19T17:04:18.954Z,924.88
2018-10-19T17:08:53.708Z,924.90
2018-10-19T17:11:57.481Z,924.95
2018-10-19T17:13:27.968Z,925.04
2018-10-19T17:14:59.620Z,924.91
2018-10-19T17:16:31.522Z,924.91
2018-10-19T17:18:03.038Z,924.69
2018-10-19T17:19:34.293Z,924.57
2018-10-19T17:21:05.877Z,924.69
2018-10-19T17:22:37.678Z,924.71
2018-10-19T17:24:09.024Z,924.68
2018-10-19T17:25:40.758Z,924.70
2018-10-19T17:27:12.723Z,924.70
2018-10-19T17:28:47.269Z,924.69
2018-10-19T17:30:15.893Z,924.65
2018-10-19T17:31:47.625Z,924.71
2018-10-19T17:33:19.849Z,924.72
2018-10-19T17:34:52.882Z,924.55
2018-10-19T17:36:22.579Z,924.49
2018-10-19T17:37:53.852Z,924.63
2018-10-19T17:39:26.722Z,924.66
2018-10-19T17:40:59.266Z,924.58
2018-10-19T17:42:28.405Z,924.86
2018-10-19T17:44:00.725Z,924.70
2018-10-19T17:47:03.160Z,924.78
2018-10-19T17:48:34.361Z,924.59
2018-10-19T17:50:05.747Z,924.69
2018-10-19T17:51:37.318Z,924.51
2018-10-19T17:53:09.023Z,924.49
2018-10-19T17:56:12.622Z,924.66
2018-10-19T17:57:43.675Z,924.48
2018-10-19T18:00:47.201Z,924.65
2018-10-19T18:02:18.383Z,924.48
2018-10-19T18:06:53.114Z,924.31
2018-10-19T18:08:24.765Z,924.45
2018-10-19T18:09:56.548Z,924.39
2018-10-19T18:11:28.110Z,924.37
2018-10-19T18:12:59.387Z,924.32
2018-10-19T18:14:30.943Z,924.32
2018-10-19T18:16:02.628Z,924.38
2018-10-19T18:19:06.808Z,924.75
2018-10-19T18:22:09.049Z,924.64
2018-10-19T18:25:11.966Z,924.56
2018-10-19T18:26:44.333Z,924.47
2018-10-19T18:28:15.645Z,924.52
2018-10-19T18:31:18.267Z,924.46
2018-10-19T18:32:50.148Z,924.35
2018-10-19T18:34:21.419Z,924.39
2018-10-19T18:35:53.198Z,924.32
2018-10-19T18:37:25.199Z,924.31
2018-10-19T18:38:56.351Z,924.29
2018-10-19T18:40:28.023Z,924.26
2018-10-19T18:41:59.294Z,924.32
2018-10-19T18:43:30.869Z,924.42
2018-10-19T18:45:02.646Z,924.40
2018-10-19T18:46:34.022Z,924.36
2018-10-19T18:48:05.595Z,924.35
2018-10-19T18:49:37.180Z,924.36
2018-10-19T18:51:09.045Z,924.31
2018-10-19T18:52:40.318Z,924.32
2018-10-19T18:54:11.888Z,924.34
2018-10-19T18:55:43.765Z,924.30
2018-10-19T18:57:15.113Z,924.31
2018-10-19T18:58:46.609Z,924.31
2018-10-19T19:00:18.183Z,924.40
2018-10-19T19:01:49.758Z,924.40
2018-10-19T19:03:21.337Z,924.50
2018-10-19T19:04:52.927Z,924.51
2018-10-19T19:07:56.091Z,924.61
2018-10-19T19:09:27.623Z,924.60
2018-10-19T19:10:59.450Z,924.63
2018-10-19T19:12:30.972Z,924.68
2018-10-19T19:14:02.499Z,924.60
2018-10-19T19:15:33.922Z,924.59
2018-10-19T19:17:06.038Z,924.82
2018-10-19T19:18:37.079Z,924.76
2018-10-19T19:20:09.014Z,924.76
2018-10-19T19:21:40.337Z,924.74
2018-10-19T19:24:43.362Z,924.55
2018-10-19T19:26:14.962Z,924.62
2018-10-19T19:27:46.816Z,924.59
2018-10-19T19:30:49.667Z,924.58
2018-10-19T19:32:21.540Z,924.58
2018-10-19T19:33:52.810Z,924.53
2018-10-19T19:35:24.385Z,924.48
2018-10-19T19:36:55.959Z,924.55
2018-10-19T19:38:27.535Z,924.62
2018-10-19T19:39:59.478Z,924.68
2018-10-19T19:41:30.932Z,924.69
2018-10-19T19:43:02.579Z,924.65
2018-10-19T19:46:05.408Z,924.70
2018-10-19T19:47:36.979Z,924.65
2018-10-19T19:49:08.635Z,924.64
2018-10-19T19:50:40.338Z,924.72
2018-10-19T19:52:11.806Z,924.69
2018-10-19T19:53:43.275Z,924.83
2018-10-19T19:55:15.054Z,924.79
2018-10-19T19:58:18.102Z,924.74
2018-10-19T19:59:49.577Z,924.74
2018-10-19T20:01:21.145Z,924.72
2018-10-19T20:02:52.721Z,924.82
2018-10-19T20:04:24.293Z,924.80
2018-10-19T20:05:55.866Z,924.83
2018-10-19T20:07:27.747Z,924.77
2018-10-19T20:08:59.216Z,924.76
2018-10-19T20:10:30.687Z,924.76
2018-10-19T20:12:02.176Z,924.76
2018-10-19T20:13:33.937Z,924.74
2018-10-19T20:16:37.196Z,924.80
2018-10-19T20:19:40.028Z,924.87
2018-10-19T20:21:11.600Z,924.86
2018-10-19T20:22:43.174Z,924.89
2018-10-19T20:24:14.747Z,924.88
2018-10-19T20:25:46.319Z,924.90
2018-10-19T20:27:17.948Z,924.88